Time;durP1;ratioP1;P1;durP2;ratioP2;P2;SDS_P1;SDS_P2;PMS_P1;PMS_P2;Temp;Humidity;BMP_temperature;BMP_pressure;BME280_temperature;BME280_humidity;BME280_pressure;Samples;Min_cycle;Max_cycle;Signal;HPM_P1;HPM_P2
2021/10/18 00:01:19;;;;;;;29.20;14.73;;;9.80;99.90;;;;;;5029041;28;20212;-73
2021/10/18 00:03:44;;;;;;;26.20;14.90;;;9.70;99.90;;;;;;5017223;28;20311;-71
2021/10/18 00:06:10;;;;;;;29.43;15.50;;;9.70;99.90;;;;;;5020737;28;20227;-73
2021/10/18 00:08:36;;;;;;;27.63;15.00;;;9.70;99.90;;;;;;5012538;28;20221;-72
2021/10/18 00:11:02;;;;;;;27.23;16.53;;;9.70;99.90;;;;;;4996335;28;20652;-73
2021/10/18 00:13:28;;;;;;;27.40;15.20;;;9.70;99.90;;;;;;5029885;28;20228;-72
2021/10/18 00:15:54;;;;;;;26.60;14.70;;;9.60;99.90;;;;;;5016612;28;20454;-72
2021/10/18 00:18:20;;;;;;;25.80;14.50;;;9.60;99.90;;;;;;5003803;28;20216;-72
2021/10/18 00:20:46;;;;;;;19.90;13.97;;;9.50;99.90;;;;;;5009338;28;20462;-73
2021/10/18 00:23:11;;;;;;;26.63;14.20;;;9.50;99.90;;;;;;5011916;28;20246;-73
2021/10/18 00:25:37;;;;;;;23.07;13.57;;;9.50;99.90;;;;;;5028465;28;20225;-72
2021/10/18 00:28:03;;;;;;;21.27;12.70;;;9.40;99.90;;;;;;5028331;28;20221;-72
2021/10/18 00:30:29;;;;;;;21.97;11.83;;;9.40;99.90;;;;;;5004111;28;20243;-73
2021/10/18 00:32:54;;;;;;;21.03;12.20;;;9.40;99.90;;;;;;5024224;28;20220;-70
2021/10/18 00:35:20;;;;;;;21.97;12.73;;;9.40;99.90;;;;;;5027233;28;20232;-73
2021/10/18 00:37:46;;;;;;;21.20;11.77;;;9.30;99.90;;;;;;5011900;28;20259;-73
2021/10/18 00:40:12;;;;;;;20.23;12.20;;;9.30;99.90;;;;;;5028028;28;20319;-74
2021/10/18 00:42:38;;;;;;;24.90;13.03;;;9.30;99.90;;;;;;5028698;28;20275;-74
2021/10/18 00:45:05;;;;;;;18.97;11.13;;;9.30;99.90;;;;;;5028444;28;20521;-73
2021/10/18 00:47:31;;;;;;;23.50;11.83;;;9.30;99.90;;;;;;5028241;28;20536;-73
2021/10/18 00:49:57;;;;;;;18.47;12.80;;;9.30;99.90;;;;;;5028045;28;20543;-74
2021/10/18 00:52:23;;;;;;;27.50;13.53;;;9.30;99.90;;;;;;5028885;28;20216;-73
2021/10/18 00:54:50;;;;;;;23.80;13.20;;;9.30;99.90;;;;;;5012430;28;20223;-73
2021/10/18 00:57:16;;;;;;;22.13;13.60;;;9.30;99.90;;;;;;5032436;28;20279;-73
2021/10/18 00:59:45;;;;;;;24.47;14.40;;;9.20;99.90;;;;;;5032526;28;20463;-74
2021/10/18 01:02:10;;;;;;;24.17;14.13;;;9.20;99.90;;;;;;5031359;28;20546;-74
2021/10/18 01:04:36;;;;;;;25.50;14.67;;;9.20;99.90;;;;;;5016238;28;20546;-74
2021/10/18 01:07:02;;;;;;;25.30;14.07;;;9.20;99.90;;;;;;5015184;28;20278;-73
2021/10/18 01:09:28;;;;;;;20.83;12.77;;;9.20;99.90;;;;;;4999542;28;20224;-73
2021/10/18 01:11:53;;;;;;;24.27;12.93;;;9.20;99.90;;;;;;4999948;28;20781;-72
2021/10/18 01:14:19;;;;;;;23.60;13.27;;;9.20;99.90;;;;;;4988305;28;20675;-73
2021/10/18 01:16:45;;;;;;;19.80;13.33;;;9.20;99.90;;;;;;5023639;28;20309;-73
2021/10/18 01:19:22;;;;;;;22.77;13.40;;;9.10;99.90;;;;;;4998583;28;20220;-74
2021/10/18 01:21:48;;;;;;;25.23;14.53;;;9.10;99.90;;;;;;5016086;28;20291;-73
2021/10/18 01:24:14;;;;;;;28.07;15.40;;;9.10;99.90;;;;;;4999117;28;20969;-73
2021/10/18 01:26:40;;;;;;;25.57;14.80;;;9.10;99.90;;;;;;5018027;28;20466;-73
2021/10/18 01:29:06;;;;;;;24.07;13.80;;;9.10;99.90;;;;;;5016703;28;20471;-73
2021/10/18 01:31:32;;;;;;;23.70;13.10;;;9.00;99.90;;;;;;4995480;28;20455;-73
2021/10/18 01:33:58;;;;;;;25.53;14.40;;;9.00;99.90;;;;;;4992111;28;20265;-72
2021/10/18 01:36:23;;;;;;;22.70;12.57;;;9.00;99.90;;;;;;5031686;28;20599;-73
2021/10/18 01:38:49;;;;;;;21.87;12.67;;;8.90;99.90;;;;;;5031307;28;20231;-72
2021/10/18 01:41:15;;;;;;;18.47;12.40;;;8.90;99.90;;;;;;5007025;28;20224;-73
2021/10/18 01:43:41;;;;;;;20.50;12.77;;;8.90;99.90;;;;;;5009798;28;20235;-73
2021/10/18 01:46:06;;;;;;;21.20;13.57;;;8.90;99.90;;;;;;5032833;28;20233;-74
2021/10/18 01:48:32;;;;;;;16.50;11.00;;;8.90;99.90;;;;;;5019304;28;20553;-73
2021/10/18 01:50:58;;;;;;;21.73;12.40;;;8.90;99.90;;;;;;5025422;28;20220;-73
2021/10/18 01:53:24;;;;;;;21.97;12.10;;;8.90;99.90;;;;;;5015255;28;20220;-72
2021/10/18 01:55:50;;;;;;;22.53;12.37;;;8.90;99.90;;;;;;5002994;28;20220;-72
2021/10/18 01:58:16;;;;;;;21.43;12.40;;;8.80;99.90;;;;;;5015456;28;20466;-72
2021/10/18 02:00:45;;;;;;;20.73;11.20;;;8.80;99.90;;;;;;5000651;28;20270;-73
2021/10/18 02:03:10;;;;;;;18.30;10.97;;;8.80;99.90;;;;;;5023172;28;20475;-73
2021/10/18 02:05:37;;;;;;;22.20;11.40;;;8.80;99.90;;;;;;4998598;28;20456;-73
2021/10/18 02:08:04;;;;;;;17.30;10.50;;;8.80;99.90;;;;;;5013740;28;20216;-70
2021/10/18 02:10:29;;;;;;;19.77;12.13;;;8.80;99.90;;;;;;5029057;28;20446;-73
2021/10/18 02:12:56;;;;;;;16.60;10.27;;;8.80;99.90;;;;;;5052598;28;20466;-71
2021/10/18 02:15:22;;;;;;;20.33;10.53;;;8.70;99.90;;;;;;5034475;28;20291;-73
2021/10/18 02:17:47;;;;;;;16.20;9.97;;;8.70;99.90;;;;;;5017654;28;20914;-73
2021/10/18 02:20:14;;;;;;;17.80;10.80;;;8.70;99.90;;;;;;5017332;28;20450;-73
2021/10/18 02:22:40;;;;;;;17.13;11.00;;;8.70;99.90;;;;;;5018122;28;20709;-73
2021/10/18 02:25:08;;;;;;;16.20;10.80;;;8.60;99.90;;;;;;5017251;28;20467;-73
2021/10/18 02:27:35;;;;;;;17.10;8.97;;;8.60;99.90;;;;;;5014342;28;20880;-72
2021/10/18 02:30:03;;;;;;;14.40;9.63;;;8.60;99.90;;;;;;5038403;28;20462;-73
2021/10/18 02:32:28;;;;;;;13.37;9.20;;;8.60;99.90;;;;;;5033932;28;20451;-74
2021/10/18 02:34:56;;;;;;;18.90;9.27;;;8.60;99.90;;;;;;5018238;28;20454;-73
2021/10/18 02:37:22;;;;;;;17.37;9.40;;;8.60;99.90;;;;;;5014104;28;20534;-73
2021/10/18 02:39:48;;;;;;;19.83;9.40;;;8.50;99.90;;;;;;4991210;28;20245;-73
2021/10/18 02:42:14;;;;;;;14.67;9.27;;;8.50;99.90;;;;;;5011911;28;20452;-73
2021/10/18 02:44:40;;;;;;;12.20;8.33;;;8.50;99.90;;;;;;5011744;28;20213;-73
2021/10/18 02:47:07;;;;;;;13.00;9.00;;;8.50;99.90;;;;;;4994689;28;20474;-72
2021/10/18 02:49:34;;;;;;;12.10;7.73;;;8.50;99.90;;;;;;5003431;28;20273;-73
2021/10/18 02:51:59;;;;;;;11.40;7.90;;;8.50;99.90;;;;;;4997447;28;20538;-73
2021/10/18 02:54:25;;;;;;;10.80;7.33;;;8.40;99.90;;;;;;5019235;28;20621;-73
2021/10/18 02:56:51;;;;;;;12.43;8.50;;;8.40;99.90;;;;;;5011639;28;20228;-73
2021/10/18 02:59:16;;;;;;;16.00;9.00;;;8.40;99.90;;;;;;5011208;28;20224;-73
2021/10/18 03:01:42;;;;;;;11.07;7.97;;;8.40;99.90;;;;;;5010769;28;20235;-73
2021/10/18 03:04:08;;;;;;;13.73;8.27;;;8.40;99.90;;;;;;5010157;28;20228;-72
2021/10/18 03:06:34;;;;;;;11.77;8.00;;;8.30;99.90;;;;;;5011643;28;20794;-74
2021/10/18 03:09:01;;;;;;;14.17;7.80;;;8.30;99.90;;;;;;5010545;28;20724;-72
2021/10/18 03:11:26;;;;;;;15.47;9.23;;;8.30;99.90;;;;;;5019681;28;20220;-73
2021/10/18 03:13:52;;;;;;;16.50;9.23;;;8.30;99.90;;;;;;5028027;28;21028;-72
2021/10/18 03:16:18;;;;;;;17.63;11.30;;;8.30;99.90;;;;;;5011080;28;20690;-73
2021/10/18 03:18:43;;;;;;;24.07;11.50;;;8.20;99.90;;;;;;5026547;28;20706;-73
2021/10/18 03:21:09;;;;;;;26.87;13.83;;;8.20;99.90;;;;;;5027074;28;20232;-73
2021/10/18 03:23:35;;;;;;;24.00;13.30;;;8.20;99.90;;;;;;5027584;28;20370;-72
2021/10/18 03:26:01;;;;;;;21.93;12.00;;;8.20;99.90;;;;;;5027135;28;20220;-72
2021/10/18 03:28:27;;;;;;;26.27;14.00;;;8.20;99.90;;;;;;5027586;28;20224;-73
2021/10/18 03:30:52;;;;;;;24.30;13.00;;;8.20;99.90;;;;;;5026672;28;20482;-73
2021/10/18 03:33:18;;;;;;;20.77;12.63;;;8.20;99.90;;;;;;5008802;28;20217;-73
2021/10/18 03:35:44;;;;;;;26.33;13.33;;;8.10;99.90;;;;;;5027796;28;20266;-72
2021/10/18 03:38:10;;;;;;;24.37;13.43;;;8.20;99.90;;;;;;5010492;28;20292;-73
2021/10/18 03:40:36;;;;;;;20.43;11.67;;;8.10;99.90;;;;;;5026656;28;20236;-73
2021/10/18 03:43:01;;;;;;;21.73;13.30;;;8.10;99.90;;;;;;5027067;28;20467;-73
2021/10/18 03:45:27;;;;;;;23.50;12.90;;;8.10;99.90;;;;;;5010159;28;20474;-72
2021/10/18 03:47:53;;;;;;;16.83;10.13;;;8.10;99.90;;;;;;5027290;28;20217;-74
2021/10/18 03:50:19;;;;;;;20.20;11.30;;;8.10;99.90;;;;;;5005727;28;20510;-73
2021/10/18 03:52:45;;;;;;;16.30;10.90;;;8.10;99.90;;;;;;5010583;28;20608;-73
2021/10/18 03:55:11;;;;;;;19.20;12.00;;;8.10;99.90;;;;;;5025780;28;20598;-73
2021/10/18 03:57:37;;;;;;;16.20;10.50;;;8.10;99.90;;;;;;5027045;28;20216;-72
2021/10/18 04:00:05;;;;;;;24.47;11.93;;;8.10;99.90;;;;;;5009591;28;20467;-73
2021/10/18 04:02:38;;;;;;;17.93;10.53;;;8.10;99.90;;;;;;5025073;28;20466;-73
2021/10/18 04:05:04;;;;;;;18.47;10.73;;;8.10;99.90;;;;;;5026064;28;20455;-73
2021/10/18 04:07:30;;;;;;;16.63;9.60;;;8.00;99.90;;;;;;5029418;28;20208;-73
2021/10/18 04:09:57;;;;;;;17.07;10.00;;;8.10;99.90;;;;;;5029640;28;20450;-73
2021/10/18 04:12:23;;;;;;;22.23;10.27;;;8.10;99.90;;;;;;5010272;28;20455;-73
2021/10/18 04:14:48;;;;;;;19.00;10.90;;;8.10;99.90;;;;;;5029258;28;20270;-73
2021/10/18 04:17:14;;;;;;;18.63;11.10;;;8.10;99.90;;;;;;5012564;28;20221;-73
2021/10/18 04:19:40;;;;;;;26.47;10.17;;;8.10;99.90;;;;;;5030276;28;20221;-72
2021/10/18 04:22:05;;;;;;;17.23;10.70;;;8.10;99.90;;;;;;5028446;28;20235;-73
2021/10/18 04:24:31;;;;;;;15.00;10.17;;;8.10;99.90;;;;;;5029145;28;20299;-73
2021/10/18 04:26:57;;;;;;;13.10;7.73;;;8.10;99.90;;;;;;5030632;28;20216;-73
2021/10/18 04:29:22;;;;;;;19.07;9.80;;;8.10;99.90;;;;;;5011825;28;20216;-73
2021/10/18 04:31:48;;;;;;;14.90;8.03;;;8.10;99.90;;;;;;5012430;28;20686;-73
2021/10/18 04:34:14;;;;;;;15.90;8.47;;;8.10;99.90;;;;;;5017750;28;20335;-73
2021/10/18 04:36:39;;;;;;;12.17;8.10;;;8.10;99.90;;;;;;5023005;28;20678;-73
2021/10/18 04:39:05;;;;;;;14.60;8.30;;;8.10;99.90;;;;;;5011287;28;20224;-72
2021/10/18 04:41:30;;;;;;;11.40;6.93;;;8.10;99.90;;;;;;4996140;28;20231;-73
2021/10/18 04:43:56;;;;;;;12.67;7.60;;;8.10;99.90;;;;;;5012600;28;20626;-71
2021/10/18 04:46:22;;;;;;;13.13;8.00;;;8.10;99.90;;;;;;5003312;28;20274;-74
2021/10/18 04:48:47;;;;;;;12.13;7.20;;;8.10;99.90;;;;;;5004080;28;20221;-73
2021/10/18 04:51:13;;;;;;;12.20;7.80;;;8.10;99.90;;;;;;4992225;28;20233;-72
2021/10/18 04:53:39;;;;;;;13.27;7.30;;;8.10;99.90;;;;;;5012088;28;20232;-73
2021/10/18 04:56:04;;;;;;;9.10;6.50;;;8.10;99.90;;;;;;5029629;28;20228;-72
2021/10/18 04:58:30;;;;;;;9.23;6.17;;;8.10;99.90;;;;;;5012279;28;20220;-73
2021/10/18 05:00:56;;;;;;;10.07;6.70;;;8.10;99.90;;;;;;5009010;28;20221;-72
2021/10/18 05:03:23;;;;;;;9.53;6.63;;;8.10;99.90;;;;;;5025378;28;20251;-73
2021/10/18 05:05:49;;;;;;;11.33;6.67;;;8.10;99.90;;;;;;5028766;28;20482;-72
2021/10/18 05:08:15;;;;;;;9.40;6.33;;;8.10;99.90;;;;;;5011746;28;20494;-72
2021/10/18 05:10:42;;;;;;;8.77;6.07;;;8.10;99.90;;;;;;5000819;28;21006;-73
2021/10/18 05:13:09;;;;;;;10.23;6.40;;;8.10;99.90;;;;;;5015282;28;20622;-73
2021/10/18 05:15:35;;;;;;;8.10;5.63;;;8.10;99.90;;;;;;5033595;28;20455;-73
2021/10/18 05:18:01;;;;;;;8.77;6.27;;;8.10;99.90;;;;;;5015067;28;20453;-74
2021/10/18 05:20:31;;;;;;;11.07;6.77;;;8.10;99.90;;;;;;5001778;28;20447;-73
2021/10/18 05:22:57;;;;;;;8.93;5.70;;;8.10;99.90;;;;;;5011331;28;20481;-73
2021/10/18 05:25:24;;;;;;;9.37;6.07;;;8.10;99.90;;;;;;5031678;28;20446;-72
2021/10/18 05:27:50;;;;;;;11.23;7.27;;;8.10;99.90;;;;;;5015162;28;20693;-72
2021/10/18 05:30:19;;;;;;;9.10;5.47;;;8.20;99.90;;;;;;5014591;28;20450;-71
2021/10/18 05:32:45;;;;;;;13.87;7.37;;;8.10;99.90;;;;;;5025526;28;20774;-72
2021/10/18 05:35:11;;;;;;;11.73;6.70;;;8.10;99.90;;;;;;5028769;28;20498;-72
2021/10/18 05:37:44;;;;;;;12.80;6.90;;;8.10;99.90;;;;;;5026518;28;20474;-73
2021/10/18 05:40:11;;;;;;;14.90;7.77;;;8.10;99.90;;;;;;5025992;28;20216;-72
2021/10/18 05:42:37;;;;;;;15.67;7.37;;;8.20;99.90;;;;;;5016951;28;20615;-73
2021/10/18 05:45:04;;;;;;;13.50;7.33;;;8.20;99.90;;;;;;5014640;28;20477;-72
2021/10/18 05:47:29;;;;;;;14.73;8.97;;;8.20;99.90;;;;;;5044890;28;20235;-72
2021/10/18 05:49:55;;;;;;;15.87;10.20;;;8.20;99.90;;;;;;5018486;28;20979;-73
2021/10/18 05:52:22;;;;;;;17.00;10.27;;;8.20;99.90;;;;;;5034842;28;20629;-73
2021/10/18 05:54:48;;;;;;;23.47;11.30;;;8.20;99.90;;;;;;5018748;28;20227;-73
2021/10/18 05:57:13;;;;;;;24.77;11.27;;;8.20;99.90;;;;;;5052472;28;20481;-73
2021/10/18 05:59:39;;;;;;;24.67;12.23;;;8.20;99.90;;;;;;5018376;28;20619;-73
2021/10/18 06:02:07;;;;;;;23.03;12.40;;;8.20;99.90;;;;;;5014126;28;20220;-71
2021/10/18 06:04:35;;;;;;;18.77;11.80;;;8.20;99.90;;;;;;5015255;28;20212;-72
2021/10/18 06:07:01;;;;;;;18.80;12.30;;;8.20;99.90;;;;;;5020331;28;20466;-72
2021/10/18 06:09:27;;;;;;;21.00;12.50;;;8.20;99.90;;;;;;5017779;28;20454;-73
2021/10/18 06:11:53;;;;;;;23.73;12.80;;;8.20;99.90;;;;;;5018338;28;20227;-72
2021/10/18 06:14:18;;;;;;;21.00;11.87;;;8.20;99.90;;;;;;5018051;28;20450;-72
2021/10/18 06:16:44;;;;;;;21.30;12.20;;;8.20;99.90;;;;;;5018311;28;20244;-73
2021/10/18 06:19:10;;;;;;;20.40;10.50;;;8.20;99.90;;;;;;5034106;28;20313;-72
2021/10/18 06:21:35;;;;;;;24.03;12.40;;;8.20;99.90;;;;;;5034948;28;20224;-72
2021/10/18 06:24:01;;;;;;;22.40;11.17;;;8.20;99.90;;;;;;5017847;28;20255;-73
2021/10/18 06:26:27;;;;;;;21.80;12.60;;;8.20;99.90;;;;;;5034583;28;20219;-72
2021/10/18 06:28:53;;;;;;;18.83;11.43;;;8.20;99.90;;;;;;5010636;28;20216;-72
2021/10/18 06:31:18;;;;;;;19.27;9.83;;;8.20;99.90;;;;;;5029647;28;20303;-73
2021/10/18 06:33:44;;;;;;;21.57;10.80;;;8.20;99.90;;;;;;5044584;28;20262;-73
2021/10/18 06:36:11;;;;;;;21.50;12.33;;;8.20;99.90;;;;;;5032777;28;20220;-73
2021/10/18 06:38:36;;;;;;;15.60;9.60;;;8.20;99.90;;;;;;5015708;28;20254;-73
2021/10/18 06:41:02;;;;;;;18.30;11.37;;;8.20;99.90;;;;;;5032207;28;20486;-73
2021/10/18 06:43:28;;;;;;;19.30;11.63;;;8.20;99.90;;;;;;5033111;28;20224;-72
2021/10/18 06:45:53;;;;;;;20.53;10.30;;;8.20;99.90;;;;;;5032009;28;20220;-72
2021/10/18 06:48:19;;;;;;;26.60;15.00;;;8.20;99.90;;;;;;5015511;28;20231;-73
2021/10/18 06:50:46;;;;;;;27.70;14.93;;;8.30;99.90;;;;;;5016464;28;20231;-73
2021/10/18 06:53:27;;;;;;;21.40;13.17;;;8.30;99.90;;;;;;5032384;28;20254;-73
2021/10/18 06:55:52;;;;;;;20.20;11.87;;;8.30;99.90;;;;;;5050714;28;20505;-72
2021/10/18 06:58:19;;;;;;;18.57;11.43;;;8.30;99.90;;;;;;5015831;28;20848;-73
2021/10/18 07:00:44;;;;;;;19.87;11.67;;;8.20;99.90;;;;;;5032449;28;20261;-73
2021/10/18 07:03:10;;;;;;;18.67;11.70;;;8.30;99.90;;;;;;5029886;28;20463;-73
2021/10/18 07:05:36;;;;;;;17.47;10.70;;;8.30;99.90;;;;;;5026981;28;20212;-73
2021/10/18 07:08:01;;;;;;;21.97;12.70;;;8.30;99.90;;;;;;5016229;28;20220;-73
2021/10/18 07:10:27;;;;;;;21.93;11.33;;;8.30;99.90;;;;;;5016392;28;20214;-72
2021/10/18 07:12:53;;;;;;;20.10;11.60;;;8.30;99.90;;;;;;5016222;28;20708;-73
2021/10/18 07:15:18;;;;;;;16.00;10.17;;;8.40;99.90;;;;;;5027338;28;20220;-72
2021/10/18 07:17:44;;;;;;;17.80;10.33;;;8.40;99.90;;;;;;5031007;28;20270;-72
2021/10/18 07:20:10;;;;;;;17.33;10.40;;;8.40;99.90;;;;;;5028743;28;20224;-72
2021/10/18 07:22:42;;;;;;;21.37;11.23;;;8.40;99.90;;;;;;5010649;28;20239;-72
2021/10/18 07:25:08;;;;;;;17.10;9.50;;;8.40;99.90;;;;;;4993823;28;20452;-73
2021/10/18 07:27:35;;;;;;;17.60;8.33;;;8.40;99.90;;;;;;5043626;28;20454;-72
2021/10/18 07:30:00;;;;;;;25.33;10.70;;;8.40;99.90;;;;;;5028303;28;20842;-72
2021/10/18 07:32:26;;;;;;;15.40;9.83;;;8.40;99.90;;;;;;5013969;28;20216;-73
2021/10/18 07:34:52;;;;;;;30.00;14.87;;;8.40;99.90;;;;;;5013981;28;20226;-72
2021/10/18 07:37:25;;;;;;;20.00;13.63;;;8.50;99.90;;;;;;5030119;28;20220;-72
2021/10/18 07:39:51;;;;;;;24.50;14.13;;;8.50;99.90;;;;;;5015543;28;20451;-72
2021/10/18 07:42:16;;;;;;;28.30;14.80;;;8.50;99.90;;;;;;4988965;28;20464;-73
2021/10/18 07:44:42;;;;;;;21.77;12.00;;;8.50;99.90;;;;;;4961197;28;20977;-72
2021/10/18 07:47:08;;;;;;;13.20;9.50;;;8.50;99.90;;;;;;5019233;28;20269;-73
2021/10/18 07:49:36;;;;;;;18.90;11.60;;;8.50;99.90;;;;;;5011314;28;20227;-73
2021/10/18 07:52:04;;;;;;;18.80;12.27;;;8.50;99.90;;;;;;4995248;28;20221;-73
2021/10/18 07:54:30;;;;;;;26.30;15.23;;;8.50;99.90;;;;;;5011750;28;21036;-73
2021/10/18 07:56:57;;;;;;;28.67;18.57;;;8.50;99.90;;;;;;5019487;28;20459;-72
2021/10/18 07:59:22;;;;;;;25.07;14.93;;;8.50;99.90;;;;;;5002752;28;20482;-73
2021/10/18 08:01:48;;;;;;;22.20;11.63;;;8.50;99.90;;;;;;5022611;28;20483;-72
2021/10/18 08:04:14;;;;;;;21.07;13.70;;;8.50;99.90;;;;;;5013828;28;20239;-72
2021/10/18 08:06:40;;;;;;;20.33;11.83;;;8.60;99.90;;;;;;5014292;28;20307;-73
2021/10/18 08:09:09;;;;;;;15.97;10.27;;;8.60;99.90;;;;;;5030213;28;20227;-74
2021/10/18 08:11:35;;;;;;;16.27;10.10;;;8.60;99.90;;;;;;5011975;28;20224;-72
2021/10/18 08:14:01;;;;;;;18.37;9.80;;;8.60;99.90;;;;;;5011903;28;20996;-73
2021/10/18 08:16:27;;;;;;;12.40;8.13;;;8.60;99.90;;;;;;5028929;28;20221;-73
2021/10/18 08:18:52;;;;;;;18.43;8.90;;;8.60;99.90;;;;;;5028555;28;20280;-73
2021/10/18 08:21:18;;;;;;;24.30;9.10;;;8.60;99.90;;;;;;5011980;28;20216;-73
2021/10/18 08:23:44;;;;;;;14.30;9.13;;;8.70;99.90;;;;;;5030268;28;20231;-73
2021/10/18 08:26:10;;;;;;;17.67;8.70;;;8.70;99.90;;;;;;4995867;28;20538;-73
2021/10/18 08:28:36;;;;;;;16.50;9.17;;;8.70;99.90;;;;;;4997116;28;20566;-73
2021/10/18 08:31:02;;;;;;;12.97;7.97;;;8.70;99.90;;;;;;5018584;28;20228;-73
2021/10/18 08:33:28;;;;;;;14.07;8.67;;;8.70;99.90;;;;;;5015723;28;20232;-73
2021/10/18 08:35:53;;;;;;;20.63;10.57;;;8.70;99.90;;;;;;5032474;28;20243;-73
2021/10/18 08:38:46;;;;;;;16.60;10.30;;;8.70;99.90;;;;;;5031623;28;20450;-71
2021/10/18 08:46:23;;;;;;;15.03;8.87;;;8.80;99.90;;;;;;5042182;28;20474;-72
2021/10/18 08:48:54;;;;;;;18.90;10.20;;;8.80;99.90;;;;;;5014087;28;20459;-73
2021/10/18 08:51:20;;;;;;;13.73;9.20;;;8.80;99.90;;;;;;5014418;28;20503;-74
2021/10/18 08:53:46;;;;;;;14.50;8.07;;;8.80;99.90;;;;;;5030288;28;20466;-73
2021/10/18 08:56:12;;;;;;;20.20;10.10;;;8.80;99.90;;;;;;5011500;28;20896;-72
2021/10/18 08:58:38;;;;;;;19.03;9.60;;;8.90;99.90;;;;;;5014537;28;20533;-73
2021/10/18 09:01:04;;;;;;;16.30;10.97;;;8.90;99.90;;;;;;5013933;28;20813;-74
2021/10/18 09:03:32;;;;;;;19.73;11.20;;;8.90;99.90;;;;;;5010707;28;20493;-72
2021/10/18 09:06:17;;;;;;;19.90;12.10;;;8.90;99.90;;;;;;5010557;28;20224;-72
2021/10/18 09:08:49;;;;;;;18.23;12.40;;;8.90;99.90;;;;;;5019763;28;20521;-73
2021/10/18 09:11:29;;;;;;;16.30;11.40;;;8.90;99.90;;;;;;5016715;28;20459;-73
2021/10/18 09:13:54;;;;;;;18.20;10.93;;;9.00;99.90;;;;;;5011264;28;20508;-73
2021/10/18 09:16:36;;;;;;;16.33;9.43;;;9.00;99.90;;;;;;5010508;28;20447;-73
2021/10/18 09:19:10;;;;;;;15.87;9.77;;;9.00;99.90;;;;;;5030564;28;20226;-72
2021/10/18 09:21:36;;;;;;;15.30;9.47;;;9.00;99.90;;;;;;5034255;28;20454;-74
2021/10/18 09:24:03;;;;;;;19.20;10.67;;;9.00;99.90;;;;;;5017591;28;20844;-73
2021/10/18 09:26:31;;;;;;;20.27;11.90;;;9.00;99.90;;;;;;5034675;28;20303;-73
2021/10/18 09:29:06;;;;;;;16.20;11.60;;;9.10;99.90;;;;;;5017584;28;20542;-73
2021/10/18 09:31:32;;;;;;;17.17;11.30;;;9.10;99.90;;;;;;5033292;28;20529;-72
2021/10/18 09:34:11;;;;;;;17.57;11.00;;;9.10;99.90;;;;;;5033835;28;20856;-72
2021/10/18 09:36:37;;;;;;;26.57;13.50;;;9.10;99.90;;;;;;5034150;28;20587;-74
2021/10/18 09:39:14;;;;;;;20.50;12.07;;;9.20;99.90;;;;;;5051440;28;20472;-74
2021/10/18 09:41:58;;;;;;;19.40;11.40;;;9.20;99.90;;;;;;5021227;28;20469;-73
2021/10/18 09:44:41;;;;;;;19.63;11.70;;;9.20;99.90;;;;;;5014575;28;20507;-72
2021/10/18 10:57:24;;;;;;;29.60;16.07;;;10.30;99.90;;;;;;5011137;28;20466;-72
2021/10/18 10:59:34;;;;;;;20.43;12.20;;;10.30;99.90;;;;;;5020282;28;20821;-74
2021/10/18 11:01:59;;;;;;;23.17;13.80;;;10.30;99.90;;;;;;5010024;28;20447;-73
2021/10/18 11:04:31;;;;;;;32.23;15.33;;;10.30;99.90;;;;;;5044604;28;21029;-72
2021/10/18 11:07:14;;;;;;;24.33;14.80;;;10.40;99.90;;;;;;5010873;28;20232;-73
2021/10/18 11:09:47;;;;;;;26.33;14.10;;;10.40;99.90;;;;;;5010311;28;20463;-73
2021/10/18 11:12:24;;;;;;;31.10;15.50;;;10.40;99.90;;;;;;5029500;28;20457;-73
2021/10/18 11:14:56;;;;;;;24.00;12.90;;;10.50;99.90;;;;;;5012934;28;20447;-73
2021/10/18 11:17:23;;;;;;;26.30;15.20;;;10.50;99.90;;;;;;5013154;28;20842;-74
2021/10/18 11:19:59;;;;;;;25.87;14.43;;;10.60;99.90;;;;;;5030931;28;20464;-73
2021/10/18 11:22:39;;;;;;;23.07;14.47;;;10.60;99.90;;;;;;5012535;28;20520;-72
2021/10/18 11:25:09;;;;;;;31.47;15.30;;;10.60;99.90;;;;;;5009590;28;20467;-72
2021/10/18 11:27:38;;;;;;;25.50;14.77;;;10.60;99.90;;;;;;5029498;28;20529;-73
2021/10/18 11:30:09;;;;;;;28.67;15.67;;;10.70;99.90;;;;;;5008860;28;20491;-73
2021/10/18 11:32:35;;;;;;;23.13;13.97;;;10.80;99.90;;;;;;5009682;28;20443;-73
2021/10/18 11:35:13;;;;;;;28.93;14.50;;;10.80;99.90;;;;;;4993412;28;20448;-71
2021/10/18 11:38:06;;;;;;;27.60;15.07;;;10.80;99.90;;;;;;4993925;28;21036;-72
2021/10/18 11:40:41;;;;;;;18.33;13.27;;;10.90;99.90;;;;;;5020828;28;20837;-73
2021/10/18 11:43:09;;;;;;;26.53;14.40;;;10.90;99.90;;;;;;5005152;28;20971;-74
2021/10/18 11:45:37;;;;;;;24.33;13.70;;;10.90;99.90;;;;;;5029713;28;20443;-73
2021/10/18 11:48:15;;;;;;;20.93;14.40;;;11.00;99.90;;;;;;5028562;28;20965;-73
2021/10/18 11:50:43;;;;;;;25.50;14.03;;;11.00;99.90;;;;;;5006270;28;20470;-73
2021/10/18 11:53:13;;;;;;;23.53;14.53;;;11.00;99.90;;;;;;5028421;28;20475;-73
2021/10/18 11:55:41;;;;;;;19.90;13.03;;;11.00;99.90;;;;;;5012803;28;20891;-73
2021/10/18 11:58:07;;;;;;;25.70;14.40;;;11.10;99.90;;;;;;5029244;28;20467;-73
2021/10/18 12:00:42;;;;;;;22.30;13.80;;;11.10;99.90;;;;;;5028550;28;20482;-73
2021/10/18 12:03:13;;;;;;;24.93;14.60;;;11.10;99.90;;;;;;5011507;28;20980;-73
2021/10/18 12:06:01;;;;;;;26.90;14.47;;;11.20;99.90;;;;;;5029287;28;21055;-73
2021/10/18 12:08:32;;;;;;;28.37;16.37;;;11.20;99.90;;;;;;5028743;28;20447;-74
2021/10/18 12:11:05;;;;;;;34.00;15.70;;;11.30;99.90;;;;;;5030481;28;20452;-74
2021/10/18 12:13:31;;;;;;;26.00;15.13;;;11.30;99.90;;;;;;5028726;28;20451;-73
2021/10/18 12:16:03;;;;;;;25.17;15.33;;;11.30;99.90;;;;;;5029164;28;20497;-73
2021/10/18 12:19:01;;;;;;;24.37;14.87;;;11.40;99.90;;;;;;5012543;28;20446;-74
2021/10/18 12:21:39;;;;;;;24.50;13.77;;;11.40;99.90;;;;;;5013944;28;20944;-73
2021/10/18 12:24:13;;;;;;;27.07;15.43;;;11.40;99.90;;;;;;5031869;28;21003;-73
2021/10/18 12:26:40;;;;;;;23.23;13.57;;;11.40;99.90;;;;;;5032522;28;20545;-73
2021/10/18 12:29:09;;;;;;;24.70;14.87;;;11.50;99.90;;;;;;5031458;28;20446;-73
2021/10/18 12:31:41;;;;;;;24.77;14.10;;;11.50;99.90;;;;;;5014900;28;20461;-73
2021/10/18 12:34:25;;;;;;;26.13;14.63;;;11.50;99.90;;;;;;5049555;28;20481;-73
2021/10/18 12:37:04;;;;;;;22.67;14.33;;;11.50;99.90;;;;;;5032429;28;20462;-73
2021/10/18 12:39:31;;;;;;;21.53;12.63;;;11.60;99.90;;;;;;5015604;28;20840;-74
2021/10/18 12:41:57;;;;;;;26.63;15.70;;;11.60;99.90;;;;;;5015507;28;20492;-71
2021/10/18 12:44:33;;;;;;;29.80;15.17;;;11.60;99.90;;;;;;5014942;28;20493;-73
2021/10/18 12:46:59;;;;;;;28.17;15.47;;;11.60;99.90;;;;;;5031156;28;20246;-74
2021/10/18 12:49:32;;;;;;;27.57;16.40;;;11.70;99.90;;;;;;5014445;28;20478;-73
2021/10/18 12:52:02;;;;;;;28.97;16.00;;;11.70;99.90;;;;;;5012666;28;20216;-74
2021/10/18 12:54:39;;;;;;;26.37;16.03;;;11.70;99.90;;;;;;5035327;28;20450;-74
2021/10/18 12:57:13;;;;;;;29.33;15.53;;;11.80;99.90;;;;;;5018302;28;20477;-72
2021/10/18 13:00:09;;;;;;;24.50;16.60;;;11.80;99.90;;;;;;5035090;28;20458;-74
2021/10/18 13:02:36;;;;;;;23.50;13.97;;;11.90;99.90;;;;;;5035780;28;20458;-74
2021/10/18 13:05:18;;;;;;;23.57;14.00;;;11.90;99.90;;;;;;5018680;28;20481;-73
2021/10/18 13:07:51;;;;;;;21.97;14.77;;;12.00;99.90;;;;;;5010281;28;20542;-73
2021/10/18 13:10:18;;;;;;;23.37;14.00;;;12.00;99.90;;;;;;5001655;28;20443;-74
2021/10/18 13:12:45;;;;;;;26.03;16.13;;;12.00;99.90;;;;;;5035853;28;20458;-74
2021/10/18 13:15:12;;;;;;;21.00;13.60;;;12.00;99.90;;;;;;5018446;28;20461;-73
2021/10/18 13:17:38;;;;;;;24.60;15.70;;;12.10;99.90;;;;;;5035514;28;20487;-72
2021/10/18 13:20:05;;;;;;;24.60;14.30;;;12.10;99.90;;;;;;5018575;28;20519;-73
2021/10/18 13:22:31;;;;;;;28.53;15.53;;;12.20;99.90;;;;;;5014611;28;20220;-73
2021/10/18 13:24:57;;;;;;;32.07;16.33;;;12.20;99.90;;;;;;5034966;28;20454;-73
2021/10/18 13:27:23;;;;;;;25.00;14.37;;;12.20;99.90;;;;;;5035034;28;20708;-72
2021/10/18 13:29:48;;;;;;;26.63;15.67;;;12.30;99.90;;;;;;5035255;28;20235;-73
2021/10/18 13:32:15;;;;;;;23.17;15.90;;;12.30;99.90;;;;;;5018688;28;20625;-72
2021/10/18 13:34:43;;;;;;;27.30;15.37;;;12.40;99.90;;;;;;5018836;28;20245;-72
2021/10/18 13:37:10;;;;;;;23.23;14.40;;;12.40;99.90;;;;;;5052929;28;20979;-73
2021/10/18 13:39:38;;;;;;;28.90;15.33;;;12.50;99.90;;;;;;5018639;28;20458;-74
2021/10/18 13:42:04;;;;;;;25.17;14.50;;;12.50;99.90;;;;;;5018372;28;20529;-73
2021/10/18 13:44:31;;;;;;;22.90;13.57;;;12.50;99.90;;;;;;5035257;28;21043;-74
2021/10/18 13:46:57;;;;;;;25.27;14.93;;;12.50;99.90;;;;;;5034910;28;20485;-73
2021/10/18 13:49:23;;;;;;;24.33;14.20;;;12.60;99.90;;;;;;5007958;28;21208;-72
2021/10/18 13:51:48;;;;;;;23.37;14.07;;;12.60;99.90;;;;;;5017727;28;20229;-73
2021/10/18 13:54:14;;;;;;;24.77;16.23;;;12.60;99.90;;;;;;5015878;28;20220;-73
2021/10/18 13:56:42;;;;;;;28.60;16.43;;;12.60;99.90;;;;;;5018521;28;20216;-73